.
WxDataArchive / Data Records for 2008-06-03
2008-06-02 June 2008 2008-06-04

Data Records for Tuesday, 03 June 2008

Time	Temp	Chill	HIndex	Humid	Dewpt	 Wind 	HiWind	WindDir	Rain 	Barom 
-----	----	-----	------	-----	-----	------	------	-------	-----	----- 
00:00	63.9	63.9	63.9	89	60.6	1	5	68	0.02	29.824 
00:05	63.5	63.5	63.5	89	60.2	0	1	112	0.01	29.824 
00:10	63.2	63.2	63.2	90	60.2	0	2	158	0.01	29.824 
00:15	63.1	63.1	63.1	91	60.4	1	2	45	0.02	29.822 
00:20	63.1	63.1	63.1	91	60.4	2	6	112	0.03	29.803 
00:25	62.7	62.7	62.7	91	60.0	2	5	112	0.01	29.802 
00:30	62.6	62.6	62.6	91	59.9	0	2	90	0.00	29.809 
00:35	62.6	62.6	62.6	91	59.9	0	2	90	0.00	29.805 
00:40	62.4	62.4	62.4	91	59.7	1	4	90	0.00	29.809 
00:45	62.4	62.4	62.4	92	60.0	0	3	135	0.01	29.826 
00:50	62.4	62.4	62.4	92	60.0	1	3	270	0.00	29.844 
00:55	62.4	62.4	62.4	92	60.0	0	2	270	0.03	29.842 
01:00	62.4	62.4	62.4	93	60.3	0	0	---	0.01	29.839 
01:05	62.3	62.3	62.3	93	60.2	0	1	270	0.00	29.828 
01:10	62.3	62.3	62.3	93	60.2	0	1	270	0.00	29.827 
01:15	62.3	62.3	62.3	94	60.5	0	1	270	0.00	29.826 
01:20	62.3	62.3	62.3	94	60.5	0	2	270	0.00	29.822 
01:25	62.4	62.4	62.4	94	60.6	1	2	270	0.01	29.821 
01:30	62.3	62.3	62.3	94	60.5	1	3	0	0.02	29.811 
01:35	62.3	62.3	62.3	94	60.5	1	3	22	0.00	29.808 
01:40	62.1	62.1	62.1	94	60.3	1	3	22	0.00	29.808 
01:45	62.1	62.1	62.1	94	60.3	1	4	68	0.00	29.796 
01:50	62.1	62.1	62.1	94	60.3	2	4	90	0.00	29.789 
01:55	62.1	62.1	62.1	94	60.3	3	6	90	0.00	29.779 
02:00	62.0	62.0	62.0	94	60.2	3	6	90	0.00	29.782 
02:05	62.1	62.1	62.1	94	60.3	2	4	90	0.00	29.782 
02:10	62.1	62.1	62.1	94	60.3	1	3	90	0.00	29.793 
02:15	62.3	62.3	62.3	94	60.5	0	1	90	0.02	29.803 
02:20	62.1	62.1	62.1	94	60.3	1	3	270	0.01	29.813 
02:25	62.1	62.1	62.1	94	60.3	0	2	270	0.02	29.812 
02:30	62.0	62.0	62.0	94	60.2	0	3	270	0.01	29.798 
02:35	62.1	62.1	62.1	95	60.6	0	1	270	0.00	29.806 
02:40	62.1	62.1	62.1	95	60.6	1	3	135	0.00	29.805 
02:45	62.1	62.1	62.1	95	60.6	1	2	112	0.00	29.792 
02:50	62.1	62.1	62.1	95	60.6	0	2	112	0.00	29.794 
02:55	62.0	62.0	62.0	95	60.5	1	3	112	0.00	29.796 
03:00	62.1	62.1	62.1	95	60.6	1	2	68	0.00	29.791 
03:05	62.1	62.1	62.1	95	60.6	1	2	68	0.01	29.792 
03:10	62.1	62.1	62.1	95	60.6	1	3	90	0.00	29.792 
03:15	62.1	62.1	62.1	95	60.6	1	5	90	0.00	29.789 
03:20	62.3	62.3	62.3	95	60.8	1	3	90	0.01	29.789 
03:25	62.3	62.3	62.3	95	60.8	1	2	90	0.02	29.781 
03:30	62.3	62.3	62.3	95	60.8	1	5	112	0.02	29.775 
03:35	62.3	62.3	62.3	96	61.1	2	5	90	0.00	29.764 
03:40	62.3	62.3	62.3	96	61.1	3	7	90	0.01	29.763 
03:45	62.3	62.3	62.3	96	61.1	2	6	112	0.00	29.759 
03:50	62.3	62.3	62.3	96	61.1	3	6	90	0.00	29.764 
03:55	62.3	62.3	62.3	96	61.1	2	5	90	0.00	29.761 
04:00	62.3	62.3	62.3	95	60.8	2	5	90	0.00	29.760 
04:05	62.3	62.3	62.3	95	60.8	2	4	90	0.00	29.759 
04:10	62.3	62.3	62.3	95	60.8	1	5	90	0.00	29.760 
04:15	62.3	62.3	62.3	95	60.8	2	4	90	0.00	29.761 
04:20	62.3	62.3	62.3	95	60.8	1	3	90	0.00	29.763 
04:25	62.3	62.3	62.3	95	60.8	0	2	90	0.00	29.761 
04:30	62.3	62.3	62.3	95	60.8	0	2	90	0.00	29.762 
04:35	62.3	62.3	62.3	95	60.8	1	5	90	0.00	29.762 
04:40	62.3	62.3	62.3	95	60.8	1	3	112	0.00	29.765 
04:45	62.3	62.3	62.3	95	60.8	0	2	112	0.00	29.761 
04:50	62.3	62.3	62.3	95	60.8	1	3	112	0.00	29.760 
04:55	62.3	62.3	62.3	95	60.8	1	4	112	0.00	29.759 
05:00	62.3	62.3	62.3	95	60.8	1	3	112	0.00	29.760 
05:05	62.3	62.3	62.3	95	60.8	1	2	112	0.00	29.760 
05:10	62.1	62.1	62.1	95	60.6	1	2	112	0.00	29.762 
05:15	62.1	62.1	62.1	95	60.6	1	3	112	0.00	29.762 
05:20	62.1	62.1	62.1	95	60.6	2	4	112	0.00	29.761 
05:25	62.0	62.0	62.0	95	60.5	1	4	112	0.00	29.761 
05:30	62.1	62.1	62.1	95	60.6	1	3	112	0.00	29.757 
05:35	62.1	62.1	62.1	95	60.6	1	4	112	0.00	29.757 
05:40	62.1	62.1	62.1	95	60.6	1	3	112	0.00	29.755 
05:45	62.1	62.1	62.1	95	60.6	1	4	112	0.00	29.750 
05:50	62.1	62.1	62.1	95	60.6	1	5	112	0.00	29.749 
05:55	62.1	62.1	62.1	95	60.6	1	3	112	0.00	29.748 
06:00	62.1	62.1	62.1	95	60.6	1	3	135	0.00	29.751 
06:05	62.1	62.1	62.1	95	60.6	1	3	135	0.00	29.753 
06:10	62.1	62.1	62.1	95	60.6	1	4	135	0.00	29.750 
06:15	62.1	62.1	62.1	95	60.6	1	4	90	0.00	29.748 
06:20	62.1	62.1	62.1	95	60.6	1	3	90	0.00	29.746 
06:25	62.1	62.1	62.1	95	60.6	2	4	90	0.00	29.747 
06:30	62.3	62.3	62.3	95	60.8	1	4	90	0.00	29.749 
06:35	62.3	62.3	62.3	95	60.8	2	4	112	0.00	29.749 
06:40	62.4	62.4	62.4	95	60.9	2	4	112	0.00	29.748 
06:45	62.4	62.4	62.4	95	60.9	2	5	112	0.00	29.747 
06:50	62.6	62.6	62.6	95	61.1	2	3	135	0.00	29.748 
06:55	62.6	62.6	62.6	95	61.1	2	4	135	0.00	29.747 
07:00	62.7	62.7	62.7	95	61.2	1	4	112	0.00	29.742 
07:05	62.9	62.9	62.9	95	61.4	2	5	112	0.00	29.737 
07:10	63.1	63.1	63.1	95	61.6	0	3	112	0.00	29.748 
07:15	63.2	63.2	63.2	95	61.7	1	3	90	0.00	29.748 
07:20	63.2	63.2	63.2	95	61.7	1	3	135	0.00	29.749 
07:25	63.4	63.4	63.4	95	61.9	1	4	135	0.00	29.748 
07:30	63.4	63.4	63.4	95	61.9	2	5	90	0.00	29.738 
07:35	63.5	63.5	63.5	95	62.0	1	4	112	0.00	29.739 
07:40	63.7	63.7	63.7	95	62.2	1	4	112	0.00	29.735 
07:45	63.9	63.9	63.9	95	62.4	2	5	112	0.00	29.729 
07:50	64.2	64.2	64.2	95	62.7	1	2	112	0.00	29.732 
07:55	64.2	64.2	64.2	95	62.7	2	4	112	0.00	29.724 
08:00	64.3	64.3	64.3	94	62.5	1	3	112	0.00	29.719 
08:05	64.5	64.5	64.5	94	62.7	2	4	112	0.00	29.717 
08:10	64.8	64.8	64.8	94	63.0	1	3	112	0.00	29.716 
08:15	65.2	65.2	65.2	94	63.4	1	4	112	0.00	29.717 
08:20	65.5	65.5	65.5	94	63.7	2	3	112	0.00	29.717 
08:25	65.6	65.6	65.6	93	63.5	1	5	112	0.00	29.716 
08:30	65.8	65.8	65.8	92	63.4	1	4	112	0.00	29.715 
08:35	66.0	66.0	66.0	92	63.6	1	3	112	0.00	29.715 
08:40	66.0	66.0	66.0	91	63.3	2	7	90	0.00	29.706 
08:45	66.1	66.1	66.1	91	63.4	1	4	90	0.00	29.703 
08:50	66.3	66.3	66.3	91	63.6	2	3	90	0.00	29.703 
08:55	66.3	66.3	66.3	91	63.6	1	4	112	0.00	29.701 
09:00	66.4	66.4	66.4	90	63.4	1	3	112	0.00	29.699 
09:05	66.6	66.6	66.6	90	63.6	1	3	112	0.00	29.704 
09:10	66.6	66.6	66.6	90	63.6	1	3	112	0.00	29.699 
09:15	66.9	66.9	66.9	90	63.9	0	3	112	0.00	29.702 
09:20	67.3	67.3	67.3	89	63.9	1	4	112	0.00	29.704 
09:25	67.3	67.3	67.3	88	63.6	2	4	135	0.00	29.705 
09:30	67.4	67.4	67.4	88	63.7	1	4	90	0.00	29.708 
09:35	67.8	67.8	67.8	88	64.1	2	4	68	0.00	29.704 
09:40	67.9	67.9	67.9	87	63.9	2	5	112	0.00	29.699 
09:45	68.3	68.3	68.3	87	64.3	1	4	90	0.00	29.692 
09:50	68.6	68.6	68.6	86	64.2	1	3	112	0.00	29.695 
09:55	68.8	68.8	68.8	85	64.1	2	4	112	0.00	29.695 
10:00	68.8	68.8	68.8	84	63.8	2	4	112	0.00	29.698 
10:05	68.8	68.8	68.8	85	64.1	1	4	90	0.00	29.701 
10:10	68.9	68.9	68.9	85	64.2	1	4	90	0.00	29.697 
10:15	69.1	69.1	69.1	85	64.4	1	5	135	0.00	29.700 
10:20	69.3	69.3	69.3	85	64.6	1	3	90	0.00	29.698 
10:25	69.3	69.3	69.3	85	64.6	1	6	112	0.00	29.698 
10:30	69.3	69.3	69.3	85	64.6	1	3	112	0.00	29.699 
10:35	69.6	69.6	69.6	85	64.9	1	3	292	0.00	29.690 
10:40	69.8	69.8	69.8	84	64.7	0	3	68	0.00	29.688 
10:45	70.1	70.1	70.1	84	65.0	1	2	68	0.00	29.683 
10:50	70.6	70.6	70.6	84	65.5	0	2	68	0.00	29.680 
10:55	70.9	70.9	70.9	84	65.8	0	2	68	0.00	29.680 
11:00	70.9	70.9	70.9	83	65.5	1	3	68	0.00	29.675 
11:05	71.1	71.1	71.1	83	65.7	0	1	68	0.00	29.677 
11:10	71.3	71.3	71.3	83	65.9	0	2	68	0.00	29.675 
11:15	71.5	71.5	71.5	82	65.7	1	3	68	0.00	29.669 
11:20	71.5	71.5	71.5	82	65.7	0	2	68	0.00	29.658 
11:25	71.6	71.6	71.6	82	65.8	0	2	68	0.00	29.657 
11:30	71.6	71.6	71.6	82	65.8	1	4	112	0.00	29.655 
11:35	71.8	71.8	71.8	83	66.3	0	2	112	0.00	29.655 
11:40	72.0	72.0	72.0	83	66.5	0	2	112	0.00	29.657 
11:45	72.1	72.1	72.1	82	66.3	0	2	112	0.00	29.660 
11:50	72.5	72.5	72.5	81	66.3	1	4	112	0.00	29.669 
11:55	72.8	72.8	72.8	82	67.0	0	1	90	0.00	29.674 
12:00	73.0	73.0	73.0	82	67.2	0	2	90	0.00	29.686 
12:05	73.2	73.2	73.2	81	67.0	0	2	90	0.00	29.682 
12:10	73.0	73.0	73.0	81	66.8	1	3	90	0.00	29.678 
12:15	73.0	73.0	73.0	82	67.2	0	2	90	0.00	29.678 
12:20	73.0	73.0	73.0	81	66.8	1	3	90	0.00	29.680 
12:25	72.8	72.8	72.8	81	66.6	1	2	315	0.00	29.680 
12:30	73.2	73.2	73.2	81	67.0	1	3	90	0.00	29.678 
12:35	73.5	73.5	73.5	80	66.9	1	4	90	0.00	29.675 
12:40	73.7	73.7	73.7	79	66.8	1	4	90	0.00	29.666 
12:45	73.9	73.9	73.9	79	67.0	1	3	90	0.00	29.669 
12:50	74.0	74.0	74.0	79	67.1	1	3	90	0.00	29.663 
12:55	73.9	73.9	73.9	78	66.6	1	3	270	0.00	29.657 
13:00	74.0	74.0	74.0	77	66.3	1	4	270	0.00	29.656 
13:05	73.9	73.9	73.9	77	66.2	1	3	270	0.00	29.658 
13:10	73.7	73.7	73.7	77	66.0	1	3	248	0.00	29.659 
13:15	73.7	73.7	73.7	76	65.6	1	4	270	0.00	29.659 
13:20	73.9	73.9	73.9	75	65.5	1	4	270	0.00	29.662 
13:25	74.2	74.2	74.2	75	65.8	0	2	270	0.00	29.657 
13:30	74.4	74.4	74.4	75	65.9	0	2	270	0.00	29.650 
13:35	74.4	74.4	74.4	75	65.9	0	2	270	0.00	29.642 
13:40	74.4	74.4	74.4	75	65.9	0	3	270	0.00	29.635 
13:45	74.4	74.4	74.4	75	65.9	0	2	248	0.00	29.627 
13:50	74.4	74.4	74.4	76	66.3	0	2	248	0.00	29.626 
13:55	74.4	74.4	74.4	76	66.3	1	3	248	0.00	29.626 
14:00	74.0	74.0	74.0	77	66.3	1	3	270	0.00	29.626 
14:05	73.9	73.9	73.9	77	66.2	0	2	225	0.00	29.628 
14:10	73.7	73.7	73.7	77	66.0	0	2	225	0.00	29.627 
14:15	73.9	73.9	73.9	78	66.6	0	1	225	0.00	29.619 
14:20	73.9	73.9	73.9	77	66.2	1	3	225	0.00	29.612 
14:25	74.0	74.0	74.0	76	65.9	1	5	202	0.00	29.607 
14:30	74.0	74.0	74.0	76	65.9	0	2	112	0.00	29.595 
14:35	74.2	74.2	74.2	76	66.1	1	3	90	0.00	29.590 
14:40	74.4	74.4	74.4	76	66.3	1	3	90	0.00	29.580 
14:45	74.6	74.6	74.6	74	65.7	1	3	90	0.00	29.578 
14:50	74.6	74.6	74.6	73	65.4	1	3	135	0.00	29.579 
14:55	74.6	74.6	74.6	71	64.6	1	2	135	0.00	29.577 
15:00	74.4	74.4	74.4	72	64.8	0	1	135	0.00	29.570 
15:05	74.2	74.2	74.2	71	64.2	1	3	135	0.00	29.564 
15:10	74.0	74.0	74.0	73	64.8	1	4	90	0.00	29.552 
15:15	73.7	73.7	73.7	73	64.5	1	3	90	0.00	29.540 
15:20	73.3	73.3	73.3	74	64.5	1	3	90	0.00	29.534 
15:25	73.0	73.0	73.0	76	65.0	1	3	90	0.00	29.529 
15:30	72.7	72.7	72.7	76	64.7	0	2	90	0.00	29.542 
15:35	72.5	72.5	72.5	79	65.6	1	3	90	0.00	29.533 
15:40	72.3	72.3	72.3	79	65.4	0	2	90	0.00	29.563 
15:45	72.3	72.3	72.3	81	66.1	0	1	90	0.00	29.587 
15:50	72.1	72.1	72.1	81	65.9	0	1	90	0.00	29.605 
15:55	72.1	72.1	72.1	81	65.9	0	1	90	0.00	29.594 
16:00	72.1	72.1	72.1	83	66.6	0	0	---	0.00	29.584 
16:05	72.1	72.1	72.1	83	66.6	0	0	---	0.00	29.584 
16:10	71.8	71.8	71.8	84	66.7	0	1	90	0.01	29.583 
16:15	71.6	71.6	71.6	83	66.2	1	3	90	0.00	29.553 
16:20	71.6	71.6	71.6	82	65.8	0	1	90	0.00	29.549 
16:25	71.8	71.8	71.8	82	66.0	0	1	90	0.00	29.562 
16:30	72.1	72.1	72.1	81	65.9	1	3	90	0.00	29.574 
16:35	72.5	72.5	72.5	78	65.2	1	7	248	0.00	29.580 
16:40	72.5	72.5	72.5	77	64.9	2	5	292	0.00	29.591 
16:45	72.7	72.7	72.7	77	65.1	1	4	248	0.00	29.593 
16:50	72.7	72.7	72.7	76	64.7	1	2	248	0.00	29.592 
16:55	72.8	72.8	72.8	75	64.4	0	2	248	0.00	29.594 
17:00	72.8	72.8	72.8	76	64.8	0	2	248	0.00	29.595 
17:05	73.0	73.0	73.0	75	64.6	0	1	248	0.00	29.595 
17:10	73.2	73.2	73.2	75	64.8	0	2	248	0.00	29.595 
17:15	73.3	73.3	73.3	74	64.5	0	1	248	0.00	29.595 
17:20	73.5	73.5	73.5	73	64.3	0	2	248	0.00	29.595 
17:25	73.9	73.9	73.9	73	64.7	1	2	248	0.00	29.594 
17:30	74.0	74.0	74.0	73	64.8	0	2	248	0.00	29.595 
17:35	74.2	74.2	74.2	72	64.6	0	2	248	0.00	29.595 
17:40	74.2	74.2	74.2	73	65.0	0	1	248	0.00	29.598 
17:45	74.4	74.4	74.4	72	64.8	0	3	248	0.00	29.599 
17:50	74.6	74.6	74.6	71	64.6	0	2	248	0.00	29.599 
17:55	74.6	74.6	74.6	71	64.6	0	2	248	0.00	29.596 
18:00	74.6	74.6	74.6	70	64.2	0	1	248	0.00	29.596 
18:05	74.6	74.6	74.6	71	64.6	0	1	248	0.00	29.593 
18:10	74.4	74.4	74.4	72	64.8	0	0	---	0.00	29.596 
18:15	74.2	74.2	74.2	71	64.2	0	1	248	0.00	29.596 
18:20	74.0	74.0	74.0	71	64.0	0	0	---	0.00	29.597 
18:25	74.0	74.0	74.0	71	64.0	0	0	---	0.00	29.597 
18:30	74.0	74.0	74.0	72	64.4	0	0	---	0.00	29.601 
18:35	73.9	73.9	73.9	72	64.3	0	1	248	0.00	29.602 
18:40	73.7	73.7	73.7	72	64.1	0	1	248	0.00	29.600 
18:45	73.5	73.5	73.5	72	63.9	0	1	248	0.00	29.605 
18:50	73.3	73.3	73.3	72	63.7	0	1	248	0.00	29.605 
18:55	73.2	73.2	73.2	73	64.0	0	2	248	0.00	29.608 
19:00	73.0	73.0	73.0	73	63.8	0	0	---	0.00	29.610 
19:05	73.0	73.0	73.0	73	63.8	0	1	248	0.00	29.612 
19:10	72.8	72.8	72.8	74	64.0	0	1	248	0.00	29.612 
19:15	72.7	72.7	72.7	75	64.3	0	0	---	0.00	29.611 
19:20	72.7	72.7	72.7	75	64.3	0	0	---	0.00	29.612 
19:25	72.5	72.5	72.5	76	64.5	0	0	---	0.00	29.610 
19:30	72.3	72.3	72.3	76	64.3	0	0	---	0.00	29.610 
19:35	72.1	72.1	72.1	76	64.1	0	0	---	0.00	29.609 
19:40	72.0	72.0	72.0	77	64.4	0	0	---	0.00	29.607 
19:45	72.0	72.0	72.0	77	64.4	0	0	---	0.00	29.605 
19:50	71.8	71.8	71.8	78	64.6	0	0	---	0.00	29.601 
19:55	71.6	71.6	71.6	78	64.4	0	0	---	0.00	29.602 
20:00	71.5	71.5	71.5	78	64.3	0	0	---	0.00	29.601 
20:05	71.3	71.3	71.3	80	64.8	0	0	---	0.00	29.594 
20:10	71.1	71.1	71.1	80	64.6	0	0	---	0.00	29.594 
20:15	70.8	70.8	70.8	80	64.3	0	0	---	0.00	29.594 
20:20	70.4	70.4	70.4	81	64.3	0	0	---	0.00	29.592 
20:25	70.1	70.1	70.1	82	64.3	0	0	---	0.00	29.582 
20:30	69.8	69.8	69.8	83	64.4	0	0	---	0.00	29.575 
20:35	69.4	69.4	69.4	84	64.3	0	0	---	0.00	29.579 
20:40	69.3	69.3	69.3	84	64.2	0	0	---	0.00	29.580 
20:45	68.9	68.9	68.9	85	64.2	0	0	---	0.00	29.578 
20:50	68.8	68.8	68.8	85	64.1	0	0	---	0.00	29.580 
20:55	68.6	68.6	68.6	85	63.9	0	0	---	0.00	29.580 
21:00	68.4	68.4	68.4	86	64.0	0	0	---	0.00	29.580 
21:05	68.4	68.4	68.4	87	64.4	0	1	248	0.00	29.578 
21:10	68.3	68.3	68.3	87	64.3	0	0	---	0.00	29.575 
21:15	68.3	68.3	68.3	87	64.3	0	0	---	0.00	29.571 
21:20	68.3	68.3	68.3	88	64.6	0	1	248	0.00	29.571 
21:25	68.3	68.3	68.3	88	64.6	0	1	248	0.00	29.570 
21:30	68.1	68.1	68.1	88	64.4	0	1	248	0.00	29.574 
21:35	68.1	68.1	68.1	88	64.4	0	1	248	0.00	29.575 
21:40	68.1	68.1	68.1	88	64.4	0	1	248	0.00	29.576 
21:45	68.1	68.1	68.1	88	64.4	0	1	248	0.00	29.578 
21:50	67.9	67.9	67.9	88	64.2	0	2	248	0.00	29.579 
21:55	67.8	67.8	67.8	89	64.4	0	2	248	0.00	29.582 
22:00	67.8	67.8	67.8	90	64.8	1	3	248	0.00	29.587 
22:05	67.9	67.9	67.9	91	65.2	1	5	135	0.00	29.589 
22:10	68.1	68.1	68.1	92	65.7	1	4	112	0.00	29.589 
22:15	68.1	68.1	68.1	92	65.7	2	9	112	0.00	29.591 
22:20	68.1	68.1	68.1	92	65.7	1	3	45	0.00	29.593 
22:25	68.1	68.1	68.1	93	66.0	1	2	68	0.00	29.594 
22:30	68.1	68.1	68.1	93	66.0	1	4	68	0.00	29.593 
22:35	67.8	67.8	67.8	93	65.7	3	7	112	0.00	29.591 
22:40	67.6	67.6	67.6	93	65.5	2	6	112	0.00	29.592 
22:45	67.6	67.6	67.6	93	65.5	2	5	112	0.00	29.592 
22:50	67.4	67.4	67.4	93	65.3	3	7	112	0.00	29.599 
22:55	67.3	67.3	67.3	93	65.2	2	6	90	0.00	29.599 
23:00	67.3	67.3	67.3	94	65.5	2	5	90	0.00	29.607 
23:05	67.3	67.3	67.3	94	65.5	3	5	90	0.00	29.603 
23:10	67.1	67.1	67.1	94	65.3	1	3	90	0.00	29.606 
23:15	67.1	67.1	67.1	94	65.3	2	5	90	0.00	29.603 
23:20	67.3	67.3	67.3	94	65.5	1	3	90	0.00	29.606 
23:25	67.3	67.3	67.3	94	65.5	1	4	135	0.00	29.608 
23:30	67.1	67.1	67.1	94	65.3	2	4	90	0.00	29.613 
23:35	67.3	67.3	67.3	94	65.5	1	4	112	0.00	29.610 
23:40	67.3	67.3	67.3	94	65.5	1	4	112	0.00	29.614 
23:45	67.3	67.3	67.3	94	65.5	2	5	112	0.00	29.609 
23:50	67.3	67.3	67.3	94	65.5	2	5	90	0.00	29.609 
23:55	67.3	67.3	67.3	94	65.5	2	5	90	0.00	29.609 

CoCoRaHS
IN-AL-39
A2 Web Hosting
Creative Commons License
GoDaddy
Look for:

loaded 2017-10-17 22:21:26 • last modified 2010-11-18 10:43:29
Privacy PolicyDisclaimer
• wx.awcolley.com is powered by PmWiki v.2002016 •
• all content (unless otherwise noted) © 2017 A W Colley